sensor_id;sensor_type;location;lat;lon;timestamp;P1;durP1;ratioP1;P2;durP2;ratioP2
25481;SDS011;13395;50.752;4.268;2022-08-07T00:01:04;3.50;;;1.60;;
25481;SDS011;13395;50.752;4.268;2022-08-07T00:03:30;5.25;;;1.83;;
25481;SDS011;13395;50.752;4.268;2022-08-07T00:05:57;4.25;;;1.70;;
25481;SDS011;13395;50.752;4.268;2022-08-07T00:08:22;3.90;;;1.52;;
25481;SDS011;13395;50.752;4.268;2022-08-07T00:10:48;2.58;;;1.63;;
25481;SDS011;13395;50.752;4.268;2022-08-07T00:13:14;4.88;;;1.75;;
25481;SDS011;13395;50.752;4.268;2022-08-07T00:15:42;2.97;;;1.70;;
25481;SDS011;13395;50.752;4.268;2022-08-07T00:18:08;6.43;;;2.50;;
25481;SDS011;13395;50.752;4.268;2022-08-07T00:20:35;3.40;;;1.33;;
25481;SDS011;13395;50.752;4.268;2022-08-07T00:23:02;2.65;;;1.60;;
25481;SDS011;13395;50.752;4.268;2022-08-07T00:25:30;2.50;;;1.58;;
25481;SDS011;13395;50.752;4.268;2022-08-07T00:27:56;5.63;;;1.92;;
25481;SDS011;13395;50.752;4.268;2022-08-07T00:30:22;4.28;;;1.95;;
25481;SDS011;13395;50.752;4.268;2022-08-07T00:32:49;2.33;;;1.60;;
25481;SDS011;13395;50.752;4.268;2022-08-07T00:35:16;1.98;;;1.50;;
25481;SDS011;13395;50.752;4.268;2022-08-07T00:37:42;3.53;;;1.60;;
25481;SDS011;13395;50.752;4.268;2022-08-07T00:40:08;2.33;;;1.40;;
25481;SDS011;13395;50.752;4.268;2022-08-07T00:42:35;2.75;;;1.63;;
25481;SDS011;13395;50.752;4.268;2022-08-07T00:45:01;5.05;;;2.15;;
25481;SDS011;13395;50.752;4.268;2022-08-07T00:47:27;4.38;;;1.80;;
25481;SDS011;13395;50.752;4.268;2022-08-07T00:49:53;4.80;;;1.70;;
25481;SDS011;13395;50.752;4.268;2022-08-07T00:52:18;3.38;;;1.50;;
25481;SDS011;13395;50.752;4.268;2022-08-07T00:54:44;4.07;;;2.13;;
25481;SDS011;13395;50.752;4.268;2022-08-07T00:57:11;4.25;;;2.08;;
25481;SDS011;13395;50.752;4.268;2022-08-07T00:59:37;3.45;;;2.15;;
25481;SDS011;13395;50.752;4.268;2022-08-07T01:02:03;2.67;;;1.85;;
25481;SDS011;13395;50.752;4.268;2022-08-07T01:04:29;4.57;;;1.95;;
25481;SDS011;13395;50.752;4.268;2022-08-07T01:06:55;2.20;;;1.70;;
25481;SDS011;13395;50.752;4.268;2022-08-07T01:09:21;2.90;;;1.70;;
25481;SDS011;13395;50.752;4.268;2022-08-07T01:11:49;2.95;;;1.70;;
25481;SDS011;13395;50.752;4.268;2022-08-07T01:14:15;3.55;;;2.10;;
25481;SDS011;13395;50.752;4.268;2022-08-07T01:16:42;3.67;;;2.08;;
25481;SDS011;13395;50.752;4.268;2022-08-07T01:19:08;3.20;;;1.98;;
25481;SDS011;13395;50.752;4.268;2022-08-07T01:21:35;3.45;;;2.13;;
25481;SDS011;13395;50.752;4.268;2022-08-07T01:24:01;2.38;;;1.90;;
25481;SDS011;13395;50.752;4.268;2022-08-07T01:26:27;3.42;;;2.20;;
25481;SDS011;13395;50.752;4.268;2022-08-07T01:28:54;4.15;;;2.03;;
25481;SDS011;13395;50.752;4.268;2022-08-07T01:31:20;2.42;;;1.60;;
25481;SDS011;13395;50.752;4.268;2022-08-07T01:33:51;3.95;;;1.90;;
25481;SDS011;13395;50.752;4.268;2022-08-07T01:36:17;6.72;;;1.67;;
25481;SDS011;13395;50.752;4.268;2022-08-07T01:38:44;4.30;;;2.30;;
25481;SDS011;13395;50.752;4.268;2022-08-07T01:41:10;6.25;;;1.80;;
25481;SDS011;13395;50.752;4.268;2022-08-07T01:43:37;7.72;;;1.90;;
25481;SDS011;13395;50.752;4.268;2022-08-07T01:46:03;2.55;;;1.73;;
25481;SDS011;13395;50.752;4.268;2022-08-07T01:48:29;4.60;;;2.22;;
25481;SDS011;13395;50.752;4.268;2022-08-07T01:51:03;3.72;;;1.77;;
25481;SDS011;13395;50.752;4.268;2022-08-07T01:53:32;5.78;;;1.75;;
25481;SDS011;13395;50.752;4.268;2022-08-07T01:56:01;4.35;;;1.88;;
25481;SDS011;13395;50.752;4.268;2022-08-07T01:58:32;2.17;;;1.75;;
25481;SDS011;13395;50.752;4.268;2022-08-07T02:01:02;10.48;;;2.17;;
25481;SDS011;13395;50.752;4.268;2022-08-07T02:03:33;3.60;;;1.85;;
25481;SDS011;13395;50.752;4.268;2022-08-07T02:06:01;3.08;;;1.67;;
25481;SDS011;13395;50.752;4.268;2022-08-07T02:08:32;2.70;;;1.77;;
25481;SDS011;13395;50.752;4.268;2022-08-07T02:11:05;7.70;;;2.03;;
25481;SDS011;13395;50.752;4.268;2022-08-07T02:13:32;3.05;;;1.90;;
25481;SDS011;13395;50.752;4.268;2022-08-07T02:16:00;2.83;;;1.58;;
25481;SDS011;13395;50.752;4.268;2022-08-07T02:18:27;3.45;;;2.00;;
25481;SDS011;13395;50.752;4.268;2022-08-07T02:20:57;2.80;;;2.08;;
25481;SDS011;13395;50.752;4.268;2022-08-07T02:23:24;2.97;;;1.90;;
25481;SDS011;13395;50.752;4.268;2022-08-07T02:25:51;3.90;;;1.90;;
25481;SDS011;13395;50.752;4.268;2022-08-07T02:28:19;3.83;;;1.98;;
25481;SDS011;13395;50.752;4.268;2022-08-07T02:30:45;4.30;;;1.80;;
25481;SDS011;13395;50.752;4.268;2022-08-07T02:33:12;3.47;;;1.80;;
25481;SDS011;13395;50.752;4.268;2022-08-07T02:35:39;3.13;;;2.25;;
25481;SDS011;13395;50.752;4.268;2022-08-07T02:38:06;2.55;;;1.98;;
25481;SDS011;13395;50.752;4.268;2022-08-07T02:40:34;5.63;;;2.10;;
25481;SDS011;13395;50.752;4.268;2022-08-07T02:43:02;3.47;;;2.00;;
25481;SDS011;13395;50.752;4.268;2022-08-07T02:45:30;5.65;;;1.90;;
25481;SDS011;13395;50.752;4.268;2022-08-07T02:47:57;2.38;;;1.60;;
25481;SDS011;13395;50.752;4.268;2022-08-07T02:50:24;3.20;;;1.83;;
25481;SDS011;13395;50.752;4.268;2022-08-07T02:52:57;4.20;;;2.00;;
25481;SDS011;13395;50.752;4.268;2022-08-07T02:55:28;4.75;;;1.88;;
25481;SDS011;13395;50.752;4.268;2022-08-07T02:57:56;3.95;;;1.88;;
25481;SDS011;13395;50.752;4.268;2022-08-07T03:00:27;3.10;;;2.15;;
25481;SDS011;13395;50.752;4.268;2022-08-07T03:02:53;3.65;;;2.35;;
25481;SDS011;13395;50.752;4.268;2022-08-07T03:05:19;5.88;;;2.17;;
25481;SDS011;13395;50.752;4.268;2022-08-07T03:07:45;3.80;;;2.28;;
25481;SDS011;13395;50.752;4.268;2022-08-07T03:10:12;2.80;;;1.73;;
25481;SDS011;13395;50.752;4.268;2022-08-07T03:12:38;2.45;;;1.80;;
25481;SDS011;13395;50.752;4.268;2022-08-07T03:15:05;2.97;;;2.17;;
25481;SDS011;13395;50.752;4.268;2022-08-07T03:17:32;5.80;;;2.00;;
25481;SDS011;13395;50.752;4.268;2022-08-07T03:19:58;3.58;;;1.90;;
25481;SDS011;13395;50.752;4.268;2022-08-07T03:22:25;2.85;;;2.00;;
25481;SDS011;13395;50.752;4.268;2022-08-07T03:24:53;3.08;;;2.22;;
25481;SDS011;13395;50.752;4.268;2022-08-07T03:27:20;2.58;;;1.85;;
25481;SDS011;13395;50.752;4.268;2022-08-07T03:29:50;5.57;;;2.20;;
25481;SDS011;13395;50.752;4.268;2022-08-07T03:32:18;2.67;;;2.05;;
25481;SDS011;13395;50.752;4.268;2022-08-07T03:34:56;4.18;;;1.92;;
25481;SDS011;13395;50.752;4.268;2022-08-07T03:37:25;3.10;;;2.22;;
25481;SDS011;13395;50.752;4.268;2022-08-07T03:39:53;2.53;;;2.00;;
25481;SDS011;13395;50.752;4.268;2022-08-07T03:42:19;3.58;;;2.10;;
25481;SDS011;13395;50.752;4.268;2022-08-07T03:44:45;2.33;;;2.00;;
25481;SDS011;13395;50.752;4.268;2022-08-07T03:47:11;4.05;;;2.05;;
25481;SDS011;13395;50.752;4.268;2022-08-07T03:49:38;4.63;;;2.15;;
25481;SDS011;13395;50.752;4.268;2022-08-07T03:52:04;4.50;;;2.35;;
25481;SDS011;13395;50.752;4.268;2022-08-07T03:54:31;5.30;;;2.28;;
25481;SDS011;13395;50.752;4.268;2022-08-07T03:56:58;6.38;;;2.17;;
25481;SDS011;13395;50.752;4.268;2022-08-07T03:59:25;2.83;;;2.13;;
25481;SDS011;13395;50.752;4.268;2022-08-07T04:01:52;6.60;;;2.60;;
25481;SDS011;13395;50.752;4.268;2022-08-07T04:04:19;2.70;;;1.88;;
25481;SDS011;13395;50.752;4.268;2022-08-07T04:06:45;4.28;;;2.30;;
25481;SDS011;13395;50.752;4.268;2022-08-07T04:09:11;2.88;;;2.00;;
25481;SDS011;13395;50.752;4.268;2022-08-07T04:11:38;4.95;;;2.20;;
25481;SDS011;13395;50.752;4.268;2022-08-07T04:14:04;2.78;;;1.83;;
25481;SDS011;13395;50.752;4.268;2022-08-07T04:16:30;3.38;;;2.13;;
25481;SDS011;13395;50.752;4.268;2022-08-07T04:18:56;4.35;;;2.58;;
25481;SDS011;13395;50.752;4.268;2022-08-07T04:21:23;4.53;;;2.60;;
25481;SDS011;13395;50.752;4.268;2022-08-07T04:23:48;3.22;;;2.08;;
25481;SDS011;13395;50.752;4.268;2022-08-07T04:26:15;3.95;;;2.45;;
25481;SDS011;13395;50.752;4.268;2022-08-07T04:28:41;4.35;;;2.28;;
25481;SDS011;13395;50.752;4.268;2022-08-07T04:31:07;4.70;;;2.47;;
25481;SDS011;13395;50.752;4.268;2022-08-07T04:33:34;5.20;;;2.67;;
25481;SDS011;13395;50.752;4.268;2022-08-07T04:36:01;3.55;;;2.60;;
25481;SDS011;13395;50.752;4.268;2022-08-07T04:38:28;3.20;;;2.20;;
25481;SDS011;13395;50.752;4.268;2022-08-07T04:40:54;5.00;;;2.60;;
25481;SDS011;13395;50.752;4.268;2022-08-07T04:43:21;3.53;;;2.33;;
25481;SDS011;13395;50.752;4.268;2022-08-07T04:49:02;3.00;;;2.67;;
25481;SDS011;13395;50.752;4.268;2022-08-07T04:54:23;3.03;;;2.40;;
25481;SDS011;13395;50.752;4.268;2022-08-07T05:04:55;4.68;;;3.00;;
25481;SDS011;13395;50.752;4.268;2022-08-07T05:07:33;5.72;;;2.90;;
25481;SDS011;13395;50.752;4.268;2022-08-07T05:10:05;5.00;;;1.98;;
25481;SDS011;13395;50.752;4.268;2022-08-07T05:12:43;2.40;;;2.13;;
25481;SDS011;13395;50.752;4.268;2022-08-07T05:15:18;2.45;;;1.83;;
25481;SDS011;13395;50.752;4.268;2022-08-07T05:17:47;2.30;;;1.70;;
25481;SDS011;13395;50.752;4.268;2022-08-07T05:20:29;4.63;;;1.83;;
25481;SDS011;13395;50.752;4.268;2022-08-07T05:25:59;3.15;;;1.73;;
25481;SDS011;13395;50.752;4.268;2022-08-07T05:28:26;3.33;;;1.40;;
25481;SDS011;13395;50.752;4.268;2022-08-07T05:30:54;3.95;;;1.60;;
25481;SDS011;13395;50.752;4.268;2022-08-07T05:33:22;4.38;;;1.67;;
25481;SDS011;13395;50.752;4.268;2022-08-07T05:35:48;2.35;;;1.88;;
25481;SDS011;13395;50.752;4.268;2022-08-07T05:38:15;2.30;;;1.60;;
25481;SDS011;13395;50.752;4.268;2022-08-07T05:40:41;2.00;;;1.60;;
25481;SDS011;13395;50.752;4.268;2022-08-07T05:43:07;2.80;;;1.95;;
25481;SDS011;13395;50.752;4.268;2022-08-07T05:45:33;5.68;;;1.90;;
25481;SDS011;13395;50.752;4.268;2022-08-07T05:47:59;5.45;;;1.90;;
25481;SDS011;13395;50.752;4.268;2022-08-07T05:50:27;2.15;;;1.80;;
25481;SDS011;13395;50.752;4.268;2022-08-07T05:52:54;4.63;;;2.33;;
25481;SDS011;13395;50.752;4.268;2022-08-07T05:55:21;2.65;;;2.22;;
25481;SDS011;13395;50.752;4.268;2022-08-07T05:57:47;3.67;;;2.47;;
25481;SDS011;13395;50.752;4.268;2022-08-07T06:00:14;5.22;;;3.28;;
25481;SDS011;13395;50.752;4.268;2022-08-07T06:02:40;5.57;;;3.85;;
25481;SDS011;13395;50.752;4.268;2022-08-07T06:05:12;6.30;;;4.40;;
25481;SDS011;13395;50.752;4.268;2022-08-07T06:07:38;7.05;;;4.57;;
25481;SDS011;13395;50.752;4.268;2022-08-07T06:10:04;6.90;;;4.63;;
25481;SDS011;13395;50.752;4.268;2022-08-07T06:12:33;9.20;;;4.57;;
25481;SDS011;13395;50.752;4.268;2022-08-07T06:14:59;8.00;;;4.72;;
25481;SDS011;13395;50.752;4.268;2022-08-07T06:17:25;9.50;;;5.18;;
25481;SDS011;13395;50.752;4.268;2022-08-07T06:19:51;8.35;;;3.92;;
25481;SDS011;13395;50.752;4.268;2022-08-07T06:22:18;4.82;;;4.07;;
25481;SDS011;13395;50.752;4.268;2022-08-07T06:24:45;7.68;;;4.30;;
25481;SDS011;13395;50.752;4.268;2022-08-07T06:27:18;5.47;;;4.25;;
25481;SDS011;13395;50.752;4.268;2022-08-07T06:29:45;4.38;;;3.40;;
25481;SDS011;13395;50.752;4.268;2022-08-07T06:32:11;6.18;;;3.65;;
25481;SDS011;13395;50.752;4.268;2022-08-07T06:34:37;5.50;;;3.42;;
25481;SDS011;13395;50.752;4.268;2022-08-07T06:37:02;5.82;;;3.65;;
25481;SDS011;13395;50.752;4.268;2022-08-07T06:39:28;6.63;;;3.85;;
25481;SDS011;13395;50.752;4.268;2022-08-07T06:44:27;7.78;;;4.00;;
25481;SDS011;13395;50.752;4.268;2022-08-07T06:46:54;4.88;;;3.72;;
25481;SDS011;13395;50.752;4.268;2022-08-07T06:49:19;5.53;;;3.20;;
25481;SDS011;13395;50.752;4.268;2022-08-07T06:51:45;5.70;;;3.78;;
25481;SDS011;13395;50.752;4.268;2022-08-07T06:54:12;5.90;;;3.50;;
25481;SDS011;13395;50.752;4.268;2022-08-07T06:56:41;5.00;;;3.10;;
25481;SDS011;13395;50.752;4.268;2022-08-07T06:59:14;6.32;;;2.92;;
25481;SDS011;13395;50.752;4.268;2022-08-07T07:01:43;5.85;;;3.00;;
25481;SDS011;13395;50.752;4.268;2022-08-07T07:04:10;4.05;;;2.22;;
25481;SDS011;13395;50.752;4.268;2022-08-07T07:06:36;4.55;;;2.30;;
25481;SDS011;13395;50.752;4.268;2022-08-07T07:09:15;3.42;;;2.25;;
25481;SDS011;13395;50.752;4.268;2022-08-07T07:17:12;4.03;;;1.80;;
25481;SDS011;13395;50.752;4.268;2022-08-07T07:19:47;2.55;;;1.73;;
25481;SDS011;13395;50.752;4.268;2022-08-07T07:22:17;2.67;;;1.63;;
25481;SDS011;13395;50.752;4.268;2022-08-07T07:24:43;4.13;;;1.95;;
25481;SDS011;13395;50.752;4.268;2022-08-07T07:27:10;3.30;;;1.80;;
25481;SDS011;13395;50.752;4.268;2022-08-07T07:29:39;3.35;;;1.60;;
25481;SDS011;13395;50.752;4.268;2022-08-07T07:32:10;2.95;;;1.52;;
25481;SDS011;13395;50.752;4.268;2022-08-07T07:34:39;3.00;;;1.85;;
25481;SDS011;13395;50.752;4.268;2022-08-07T07:37:09;2.15;;;1.60;;
25481;SDS011;13395;50.752;4.268;2022-08-07T07:39:37;3.50;;;1.77;;
25481;SDS011;13395;50.752;4.268;2022-08-07T07:42:05;3.20;;;1.88;;
25481;SDS011;13395;50.752;4.268;2022-08-07T07:44:33;2.95;;;1.83;;
25481;SDS011;13395;50.752;4.268;2022-08-07T07:47:02;2.65;;;1.60;;
25481;SDS011;13395;50.752;4.268;2022-08-07T07:49:29;4.18;;;1.90;;
25481;SDS011;13395;50.752;4.268;2022-08-07T07:51:57;3.60;;;1.80;;
25481;SDS011;13395;50.752;4.268;2022-08-07T07:54:24;3.55;;;1.40;;
25481;SDS011;13395;50.752;4.268;2022-08-07T07:56:52;3.92;;;1.70;;
25481;SDS011;13395;50.752;4.268;2022-08-07T07:59:19;3.05;;;1.98;;
25481;SDS011;13395;50.752;4.268;2022-08-07T08:01:46;2.80;;;1.98;;
25481;SDS011;13395;50.752;4.268;2022-08-07T08:04:13;4.30;;;2.05;;
25481;SDS011;13395;50.752;4.268;2022-08-07T08:06:41;3.17;;;1.63;;
25481;SDS011;13395;50.752;4.268;2022-08-07T08:09:08;1.60;;;1.42;;
25481;SDS011;13395;50.752;4.268;2022-08-07T08:11:35;4.18;;;1.48;;
25481;SDS011;13395;50.752;4.268;2022-08-07T08:14:02;4.53;;;2.00;;
25481;SDS011;13395;50.752;4.268;2022-08-07T08:16:31;2.88;;;1.70;;
25481;SDS011;13395;50.752;4.268;2022-08-07T08:19:01;2.28;;;1.45;;
25481;SDS011;13395;50.752;4.268;2022-08-07T08:21:28;4.03;;;1.70;;
25481;SDS011;13395;50.752;4.268;2022-08-07T08:24:15;3.28;;;1.80;;
25481;SDS011;13395;50.752;4.268;2022-08-07T08:27:01;2.92;;;1.55;;
25481;SDS011;13395;50.752;4.268;2022-08-07T08:29:39;3.58;;;1.88;;
25481;SDS011;13395;50.752;4.268;2022-08-07T08:32:17;4.18;;;2.30;;
25481;SDS011;13395;50.752;4.268;2022-08-07T08:34:45;4.55;;;2.10;;
25481;SDS011;13395;50.752;4.268;2022-08-07T08:37:14;3.20;;;2.10;;
25481;SDS011;13395;50.752;4.268;2022-08-07T08:39:42;2.35;;;2.08;;
25481;SDS011;13395;50.752;4.268;2022-08-07T08:48:03;3.10;;;2.05;;
25481;SDS011;13395;50.752;4.268;2022-08-07T08:50:36;3.45;;;2.08;;
25481;SDS011;13395;50.752;4.268;2022-08-07T08:53:21;2.72;;;1.70;;
25481;SDS011;13395;50.752;4.268;2022-08-07T08:56:09;4.32;;;2.03;;
25481;SDS011;13395;50.752;4.268;2022-08-07T09:01:40;3.30;;;1.95;;
25481;SDS011;13395;50.752;4.268;2022-08-07T09:10:30;3.53;;;2.15;;
25481;SDS011;13395;50.752;4.268;2022-08-07T09:23:58;3.22;;;1.50;;
25481;SDS011;13395;50.752;4.268;2022-08-07T09:26:52;3.03;;;1.70;;
25481;SDS011;13395;50.752;4.268;2022-08-07T09:46:46;1.90;;;1.00;;
25481;SDS011;13395;50.752;4.268;2022-08-07T09:52:56;3.65;;;1.60;;
25481;SDS011;13395;50.752;4.268;2022-08-07T09:56:21;2.03;;;1.27;;
25481;SDS011;13395;50.752;4.268;2022-08-07T10:17:43;2.28;;;1.20;;
25481;SDS011;13395;50.752;4.268;2022-08-07T10:20:31;2.55;;;1.48;;
25481;SDS011;13395;50.752;4.268;2022-08-07T10:26:29;1.88;;;1.40;;
25481;SDS011;13395;50.752;4.268;2022-08-07T10:34:41;5.80;;;1.50;;
25481;SDS011;13395;50.752;4.268;2022-08-07T10:43:53;2.55;;;1.52;;
25481;SDS011;13395;50.752;4.268;2022-08-07T10:46:08;2.00;;;1.40;;
25481;SDS011;13395;50.752;4.268;2022-08-07T10:48:46;2.00;;;1.00;;
25481;SDS011;13395;50.752;4.268;2022-08-07T10:51:54;3.08;;;1.25;;
25481;SDS011;13395;50.752;4.268;2022-08-07T10:54:42;1.95;;;1.30;;
25481;SDS011;13395;50.752;4.268;2022-08-07T11:00:11;1.38;;;1.25;;
25481;SDS011;13395;50.752;4.268;2022-08-07T11:02:45;13.15;;;1.48;;
25481;SDS011;13395;50.752;4.268;2022-08-07T11:09:01;1.95;;;1.30;;
25481;SDS011;13395;50.752;4.268;2022-08-07T11:11:10;4.97;;;1.45;;
25481;SDS011;13395;50.752;4.268;2022-08-07T11:16:20;5.70;;;1.70;;
25481;SDS011;13395;50.752;4.268;2022-08-07T11:18:53;5.40;;;1.40;;
25481;SDS011;13395;50.752;4.268;2022-08-07T11:21:36;1.35;;;1.20;;
25481;SDS011;13395;50.752;4.268;2022-08-07T11:29:15;4.18;;;1.25;;
25481;SDS011;13395;50.752;4.268;2022-08-07T11:39:53;1.52;;;1.00;;
25481;SDS011;13395;50.752;4.268;2022-08-07T11:45:44;2.20;;;1.30;;
25481;SDS011;13395;50.752;4.268;2022-08-07T11:48:21;3.03;;;1.35;;
25481;SDS011;13395;50.752;4.268;2022-08-07T12:02:02;3.10;;;1.40;;
25481;SDS011;13395;50.752;4.268;2022-08-07T12:04:59;3.45;;;1.27;;
25481;SDS011;13395;50.752;4.268;2022-08-07T12:07:29;1.70;;;1.08;;
25481;SDS011;13395;50.752;4.268;2022-08-07T12:10:02;5.57;;;3.53;;
25481;SDS011;13395;50.752;4.268;2022-08-07T12:12:35;6.43;;;2.83;;
25481;SDS011;13395;50.752;4.268;2022-08-07T12:15:20;6.97;;;4.00;;
25481;SDS011;13395;50.752;4.268;2022-08-07T12:17:59;5.30;;;1.90;;
25481;SDS011;13395;50.752;4.268;2022-08-07T12:23:37;5.78;;;2.92;;
25481;SDS011;13395;50.752;4.268;2022-08-07T12:26:39;5.18;;;4.38;;
25481;SDS011;13395;50.752;4.268;2022-08-07T12:29:11;3.25;;;1.98;;
25481;SDS011;13395;50.752;4.268;2022-08-07T12:31:55;4.97;;;1.23;;
25481;SDS011;13395;50.752;4.268;2022-08-07T12:34:28;3.03;;;1.02;;
25481;SDS011;13395;50.752;4.268;2022-08-07T12:36:56;2.78;;;0.80;;
25481;SDS011;13395;50.752;4.268;2022-08-07T12:39:24;1.40;;;0.90;;
25481;SDS011;13395;50.752;4.268;2022-08-07T12:41:52;2.28;;;1.33;;
25481;SDS011;13395;50.752;4.268;2022-08-07T12:44:18;5.85;;;1.17;;
25481;SDS011;13395;50.752;4.268;2022-08-07T12:52:09;2.88;;;1.55;;
25481;SDS011;13395;50.752;4.268;2022-08-07T12:57:26;1.15;;;0.98;;
25481;SDS011;13395;50.752;4.268;2022-08-07T12:59:55;3.22;;;0.93;;
25481;SDS011;13395;50.752;4.268;2022-08-07T13:03:15;2.17;;;0.90;;
25481;SDS011;13395;50.752;4.268;2022-08-07T13:14:18;1.92;;;0.90;;
25481;SDS011;13395;50.752;4.268;2022-08-07T13:19:59;0.95;;;0.85;;
25481;SDS011;13395;50.752;4.268;2022-08-07T13:22:40;5.45;;;0.98;;
25481;SDS011;13395;50.752;4.268;2022-08-07T13:25:28;2.55;;;1.00;;
25481;SDS011;13395;50.752;4.268;2022-08-07T13:28:02;0.90;;;0.70;;
25481;SDS011;13395;50.752;4.268;2022-08-07T13:30:34;4.72;;;1.00;;
25481;SDS011;13395;50.752;4.268;2022-08-07T13:33:06;3.08;;;1.10;;
25481;SDS011;13395;50.752;4.268;2022-08-07T13:35:47;2.10;;;1.00;;
25481;SDS011;13395;50.752;4.268;2022-08-07T13:38:20;1.77;;;1.27;;
25481;SDS011;13395;50.752;4.268;2022-08-07T13:41:03;4.05;;;1.50;;
25481;SDS011;13395;50.752;4.268;2022-08-07T13:43:52;2.88;;;1.00;;
25481;SDS011;13395;50.752;4.268;2022-08-07T13:46:20;2.33;;;1.15;;
25481;SDS011;13395;50.752;4.268;2022-08-07T13:48:52;2.80;;;1.40;;
25481;SDS011;13395;50.752;4.268;2022-08-07T13:51:23;7.63;;;1.20;;
25481;SDS011;13395;50.752;4.268;2022-08-07T13:54:08;2.38;;;1.00;;
25481;SDS011;13395;50.752;4.268;2022-08-07T13:56:37;2.60;;;1.23;;
25481;SDS011;13395;50.752;4.268;2022-08-07T13:59:19;1.88;;;1.10;;
25481;SDS011;13395;50.752;4.268;2022-08-07T14:01:52;1.88;;;1.08;;
25481;SDS011;13395;50.752;4.268;2022-08-07T14:04:23;2.72;;;1.27;;
25481;SDS011;13395;50.752;4.268;2022-08-07T14:06:51;4.53;;;1.55;;
25481;SDS011;13395;50.752;4.268;2022-08-07T14:09:22;3.45;;;1.10;;
25481;SDS011;13395;50.752;4.268;2022-08-07T14:11:54;2.88;;;1.05;;
25481;SDS011;13395;50.752;4.268;2022-08-07T14:14:26;1.08;;;0.90;;
25481;SDS011;13395;50.752;4.268;2022-08-07T14:17:03;4.18;;;1.20;;
25481;SDS011;13395;50.752;4.268;2022-08-07T14:22:22;1.83;;;1.00;;
25481;SDS011;13395;50.752;4.268;2022-08-07T14:24:53;2.63;;;1.52;;
25481;SDS011;13395;50.752;4.268;2022-08-07T14:27:46;2.15;;;1.45;;
25481;SDS011;13395;50.752;4.268;2022-08-07T14:30:15;1.67;;;1.15;;
25481;SDS011;13395;50.752;4.268;2022-08-07T14:32:43;3.17;;;1.50;;
25481;SDS011;13395;50.752;4.268;2022-08-07T14:35:22;2.95;;;1.48;;
25481;SDS011;13395;50.752;4.268;2022-08-07T14:37:50;1.88;;;1.02;;
25481;SDS011;13395;50.752;4.268;2022-08-07T14:40:21;1.27;;;1.10;;
25481;SDS011;13395;50.752;4.268;2022-08-07T14:43:21;3.85;;;1.63;;
25481;SDS011;13395;50.752;4.268;2022-08-07T14:48:14;1.43;;;1.17;;
25481;SDS011;13395;50.752;4.268;2022-08-07T14:50:44;5.25;;;1.70;;
25481;SDS011;13395;50.752;4.268;2022-08-07T14:53:16;3.10;;;1.30;;
25481;SDS011;13395;50.752;4.268;2022-08-07T14:55:44;5.32;;;1.33;;
25481;SDS011;13395;50.752;4.268;2022-08-07T14:58:12;1.52;;;1.40;;
25481;SDS011;13395;50.752;4.268;2022-08-07T15:00:41;1.50;;;1.20;;
25481;SDS011;13395;50.752;4.268;2022-08-07T15:03:11;2.42;;;1.50;;
25481;SDS011;13395;50.752;4.268;2022-08-07T15:05:39;2.72;;;1.35;;
25481;SDS011;13395;50.752;4.268;2022-08-07T15:08:06;1.52;;;1.10;;
25481;SDS011;13395;50.752;4.268;2022-08-07T15:10:35;4.70;;;1.60;;
25481;SDS011;13395;50.752;4.268;2022-08-07T15:13:27;5.25;;;1.65;;
25481;SDS011;13395;50.752;4.268;2022-08-07T15:15:55;3.65;;;1.45;;
25481;SDS011;13395;50.752;4.268;2022-08-07T15:18:36;4.03;;;1.58;;
25481;SDS011;13395;50.752;4.268;2022-08-07T15:21:09;2.95;;;1.58;;
25481;SDS011;13395;50.752;4.268;2022-08-07T15:23:40;3.23;;;1.60;;
25481;SDS011;13395;50.752;4.268;2022-08-07T15:26:10;5.75;;;1.42;;
25481;SDS011;13395;50.752;4.268;2022-08-07T15:28:38;2.08;;;1.40;;
25481;SDS011;13395;50.752;4.268;2022-08-07T15:31:08;1.27;;;1.10;;
25481;SDS011;13395;50.752;4.268;2022-08-07T15:33:37;3.42;;;1.80;;
25481;SDS011;13395;50.752;4.268;2022-08-07T15:36:05;8.02;;;1.50;;
25481;SDS011;13395;50.752;4.268;2022-08-07T15:38:33;5.38;;;1.60;;
25481;SDS011;13395;50.752;4.268;2022-08-07T15:41:03;4.15;;;1.75;;
25481;SDS011;13395;50.752;4.268;2022-08-07T15:43:35;4.03;;;2.05;;
25481;SDS011;13395;50.752;4.268;2022-08-07T15:46:18;7.28;;;4.30;;
25481;SDS011;13395;50.752;4.268;2022-08-07T15:48:47;5.05;;;3.85;;
25481;SDS011;13395;50.752;4.268;2022-08-07T15:51:14;5.32;;;1.85;;
25481;SDS011;13395;50.752;4.268;2022-08-07T15:53:44;3.90;;;1.60;;
25481;SDS011;13395;50.752;4.268;2022-08-07T15:56:13;3.92;;;2.58;;
25481;SDS011;13395;50.752;4.268;2022-08-07T16:01:19;3.92;;;1.77;;
25481;SDS011;13395;50.752;4.268;2022-08-07T16:03:55;5.15;;;1.70;;
25481;SDS011;13395;50.752;4.268;2022-08-07T16:06:27;3.22;;;1.70;;
25481;SDS011;13395;50.752;4.268;2022-08-07T16:08:53;4.55;;;1.80;;
25481;SDS011;13395;50.752;4.268;2022-08-07T16:11:28;3.58;;;1.20;;
25481;SDS011;13395;50.752;4.268;2022-08-07T16:24:50;4.32;;;1.40;;
25481;SDS011;13395;50.752;4.268;2022-08-07T16:27:25;2.95;;;1.80;;
25481;SDS011;13395;50.752;4.268;2022-08-07T16:30:07;7.28;;;3.40;;
25481;SDS011;13395;50.752;4.268;2022-08-07T16:32:39;4.20;;;1.70;;
25481;SDS011;13395;50.752;4.268;2022-08-07T16:35:36;2.63;;;1.65;;
25481;SDS011;13395;50.752;4.268;2022-08-07T16:52:05;3.15;;;1.45;;
25481;SDS011;13395;50.752;4.268;2022-08-07T16:54:54;2.42;;;1.40;;
25481;SDS011;13395;50.752;4.268;2022-08-07T16:57:58;4.60;;;2.13;;
25481;SDS011;13395;50.752;4.268;2022-08-07T17:00:31;7.28;;;1.67;;
25481;SDS011;13395;50.752;4.268;2022-08-07T17:03:17;3.00;;;1.63;;
25481;SDS011;13395;50.752;4.268;2022-08-07T17:08:56;5.28;;;1.55;;
25481;SDS011;13395;50.752;4.268;2022-08-07T17:11:37;4.13;;;1.77;;
25481;SDS011;13395;50.752;4.268;2022-08-07T17:14:12;3.65;;;1.70;;
25481;SDS011;13395;50.752;4.268;2022-08-07T17:16:57;4.45;;;1.55;;
25481;SDS011;13395;50.752;4.268;2022-08-07T17:19:39;4.05;;;1.80;;
25481;SDS011;13395;50.752;4.268;2022-08-07T17:22:15;5.20;;;2.00;;
25481;SDS011;13395;50.752;4.268;2022-08-07T17:27:56;3.22;;;1.55;;
25481;SDS011;13395;50.752;4.268;2022-08-07T17:30:22;28.58;;;2.08;;
25481;SDS011;13395;50.752;4.268;2022-08-07T17:33:08;2.78;;;1.80;;
25481;SDS011;13395;50.752;4.268;2022-08-07T17:38:12;4.30;;;1.60;;
25481;SDS011;13395;50.752;4.268;2022-08-07T17:49:20;3.97;;;1.88;;
25481;SDS011;13395;50.752;4.268;2022-08-07T17:51:49;4.20;;;2.00;;
25481;SDS011;13395;50.752;4.268;2022-08-07T17:54:23;4.57;;;1.90;;
25481;SDS011;13395;50.752;4.268;2022-08-07T18:00:06;6.65;;;1.85;;
25481;SDS011;13395;50.752;4.268;2022-08-07T18:08:18;5.60;;;2.20;;
25481;SDS011;13395;50.752;4.268;2022-08-07T18:16:10;2.95;;;1.88;;
25481;SDS011;13395;50.752;4.268;2022-08-07T18:18:48;4.80;;;2.13;;
25481;SDS011;13395;50.752;4.268;2022-08-07T18:21:51;3.85;;;1.80;;
25481;SDS011;13395;50.752;4.268;2022-08-07T18:32:19;10.27;;;1.75;;
25481;SDS011;13395;50.752;4.268;2022-08-07T18:51:34;4.22;;;1.48;;
25481;SDS011;13395;50.752;4.268;2022-08-07T18:56:53;5.93;;;2.38;;
25481;SDS011;13395;50.752;4.268;2022-08-07T19:05:34;3.90;;;2.63;;
25481;SDS011;13395;50.752;4.268;2022-08-07T19:10:52;5.38;;;2.05;;
25481;SDS011;13395;50.752;4.268;2022-08-07T19:13:34;4.38;;;1.95;;
25481;SDS011;13395;50.752;4.268;2022-08-07T19:16:13;6.30;;;2.13;;
25481;SDS011;13395;50.752;4.268;2022-08-07T19:21:54;4.60;;;2.13;;
25481;SDS011;13395;50.752;4.268;2022-08-07T19:27:11;4.43;;;2.08;;
25481;SDS011;13395;50.752;4.268;2022-08-07T19:29:39;4.70;;;2.13;;
25481;SDS011;13395;50.752;4.268;2022-08-07T19:32:06;6.90;;;2.30;;
25481;SDS011;13395;50.752;4.268;2022-08-07T19:34:35;7.65;;;1.98;;
25481;SDS011;13395;50.752;4.268;2022-08-07T19:37:04;4.55;;;2.15;;
25481;SDS011;13395;50.752;4.268;2022-08-07T19:39:36;3.00;;;2.03;;
25481;SDS011;13395;50.752;4.268;2022-08-07T19:42:06;4.97;;;2.53;;
25481;SDS011;13395;50.752;4.268;2022-08-07T19:44:35;3.45;;;2.42;;